sensor_id;sensor_type;location;lat;lon;timestamp;temperature;humidity
1994;DHT22;998;49.906;10.908;2022-10-31T00:00:44;14.00;99.90
1994;DHT22;998;49.906;10.908;2022-10-31T00:03:12;14.10;99.90
1994;DHT22;998;49.906;10.908;2022-10-31T00:05:41;14.20;99.90
1994;DHT22;998;49.906;10.908;2022-10-31T00:08:09;14.20;99.90
1994;DHT22;998;49.906;10.908;2022-10-31T00:10:39;14.10;99.90
1994;DHT22;998;49.906;10.908;2022-10-31T00:13:06;14.20;99.90
1994;DHT22;998;49.906;10.908;2022-10-31T00:15:34;14.00;99.90
1994;DHT22;998;49.906;10.908;2022-10-31T00:18:02;14.10;99.90
1994;DHT22;998;49.906;10.908;2022-10-31T00:20:30;13.90;99.90
1994;DHT22;998;49.906;10.908;2022-10-31T00:22:58;14.00;99.90
1994;DHT22;998;49.906;10.908;2022-10-31T00:25:25;13.90;99.90
1994;DHT22;998;49.906;10.908;2022-10-31T00:27:55;13.90;99.90
1994;DHT22;998;49.906;10.908;2022-10-31T00:30:22;13.90;99.90
1994;DHT22;998;49.906;10.908;2022-10-31T00:32:49;13.90;99.90
1994;DHT22;998;49.906;10.908;2022-10-31T00:35:17;13.90;99.90
1994;DHT22;998;49.906;10.908;2022-10-31T00:37:44;13.90;99.90
1994;DHT22;998;49.906;10.908;2022-10-31T00:40:12;13.80;99.90
1994;DHT22;998;49.906;10.908;2022-10-31T00:42:39;13.80;99.90
1994;DHT22;998;49.906;10.908;2022-10-31T00:45:09;13.90;99.90
1994;DHT22;998;49.906;10.908;2022-10-31T00:47:37;13.80;99.90
1994;DHT22;998;49.906;10.908;2022-10-31T00:50:05;13.80;99.90
1994;DHT22;998;49.906;10.908;2022-10-31T00:52:33;13.80;99.90
1994;DHT22;998;49.906;10.908;2022-10-31T00:55:01;13.80;99.90
1994;DHT22;998;49.906;10.908;2022-10-31T00:57:28;13.70;99.90
1994;DHT22;998;49.906;10.908;2022-10-31T00:59:55;13.70;99.90
1994;DHT22;998;49.906;10.908;2022-10-31T01:02:24;13.80;99.90
1994;DHT22;998;49.906;10.908;2022-10-31T01:04:52;13.70;99.90
1994;DHT22;998;49.906;10.908;2022-10-31T01:07:19;13.60;99.90
1994;DHT22;998;49.906;10.908;2022-10-31T01:09:46;13.70;99.90
1994;DHT22;998;49.906;10.908;2022-10-31T01:12:14;13.70;99.90
1994;DHT22;998;49.906;10.908;2022-10-31T01:14:43;13.70;99.90
1994;DHT22;998;49.906;10.908;2022-10-31T01:17:11;13.70;99.90
1994;DHT22;998;49.906;10.908;2022-10-31T01:19:40;13.60;99.90
1994;DHT22;998;49.906;10.908;2022-10-31T01:22:07;13.60;99.90
1994;DHT22;998;49.906;10.908;2022-10-31T01:24:35;13.60;99.90
1994;DHT22;998;49.906;10.908;2022-10-31T01:27:03;13.60;99.90
1994;DHT22;998;49.906;10.908;2022-10-31T01:29:30;13.50;99.90
1994;DHT22;998;49.906;10.908;2022-10-31T01:31:58;13.50;99.90
1994;DHT22;998;49.906;10.908;2022-10-31T01:34:25;13.50;99.90
1994;DHT22;998;49.906;10.908;2022-10-31T01:36:54;13.50;99.90
1994;DHT22;998;49.906;10.908;2022-10-31T01:39:22;13.50;99.90
1994;DHT22;998;49.906;10.908;2022-10-31T01:41:51;13.40;99.90
1994;DHT22;998;49.906;10.908;2022-10-31T01:44:51;13.20;99.90
1994;DHT22;998;49.906;10.908;2022-10-31T01:47:29;13.30;99.90
1994;DHT22;998;49.906;10.908;2022-10-31T01:50:01;13.30;99.90
1994;DHT22;998;49.906;10.908;2022-10-31T01:52:35;13.30;99.90
1994;DHT22;998;49.906;10.908;2022-10-31T01:55:07;13.40;99.90
1994;DHT22;998;49.906;10.908;2022-10-31T01:57:37;13.40;99.90
1994;DHT22;998;49.906;10.908;2022-10-31T02:00:09;13.40;99.90
1994;DHT22;998;49.906;10.908;2022-10-31T02:02:36;13.50;99.90
1994;DHT22;998;49.906;10.908;2022-10-31T02:05:06;13.50;99.90
1994;DHT22;998;49.906;10.908;2022-10-31T02:07:39;13.50;99.90
1994;DHT22;998;49.906;10.908;2022-10-31T02:10:07;13.30;99.90
1994;DHT22;998;49.906;10.908;2022-10-31T02:12:35;13.30;99.90
1994;DHT22;998;49.906;10.908;2022-10-31T02:15:04;13.40;99.90
1994;DHT22;998;49.906;10.908;2022-10-31T02:17:32;13.50;99.90
1994;DHT22;998;49.906;10.908;2022-10-31T02:26:12;13.50;99.90
1994;DHT22;998;49.906;10.908;2022-10-31T02:29:03;13.50;99.90
1994;DHT22;998;49.906;10.908;2022-10-31T02:31:37;13.60;99.90
1994;DHT22;998;49.906;10.908;2022-10-31T02:34:13;13.40;99.90
1994;DHT22;998;49.906;10.908;2022-10-31T02:36:49;13.40;99.90
1994;DHT22;998;49.906;10.908;2022-10-31T02:39:23;13.40;99.90
1994;DHT22;998;49.906;10.908;2022-10-31T02:42:01;13.40;99.90
1994;DHT22;998;49.906;10.908;2022-10-31T02:44:36;13.40;99.90
1994;DHT22;998;49.906;10.908;2022-10-31T02:47:09;13.40;99.90
1994;DHT22;998;49.906;10.908;2022-10-31T02:49:42;13.40;99.90
1994;DHT22;998;49.906;10.908;2022-10-31T02:52:17;13.50;99.90
1994;DHT22;998;49.906;10.908;2022-10-31T02:54:46;13.30;99.90
1994;DHT22;998;49.906;10.908;2022-10-31T02:57:17;13.10;99.90
1994;DHT22;998;49.906;10.908;2022-10-31T02:59:49;13.20;99.90
1994;DHT22;998;49.906;10.908;2022-10-31T03:02:38;13.20;99.90
1994;DHT22;998;49.906;10.908;2022-10-31T03:05:14;13.20;99.90
1994;DHT22;998;49.906;10.908;2022-10-31T03:07:54;13.20;99.90
1994;DHT22;998;49.906;10.908;2022-10-31T03:10:30;13.20;99.90
1994;DHT22;998;49.906;10.908;2022-10-31T03:13:04;13.20;99.90
1994;DHT22;998;49.906;10.908;2022-10-31T03:15:34;13.10;99.90
1994;DHT22;998;49.906;10.908;2022-10-31T03:18:08;13.10;99.90
1994;DHT22;998;49.906;10.908;2022-10-31T03:20:41;13.10;99.90
1994;DHT22;998;49.906;10.908;2022-10-31T03:23:14;13.10;99.90
1994;DHT22;998;49.906;10.908;2022-10-31T03:25:43;13.10;99.90
1994;DHT22;998;49.906;10.908;2022-10-31T03:28:13;13.20;99.90
1994;DHT22;998;49.906;10.908;2022-10-31T03:30:43;13.10;99.90
1994;DHT22;998;49.906;10.908;2022-10-31T03:33:16;13.10;99.90
1994;DHT22;998;49.906;10.908;2022-10-31T03:35:47;13.10;99.90
1994;DHT22;998;49.906;10.908;2022-10-31T03:38:18;13.20;99.90
1994;DHT22;998;49.906;10.908;2022-10-31T03:40:47;13.10;99.90
1994;DHT22;998;49.906;10.908;2022-10-31T03:43:18;13.20;99.90
1994;DHT22;998;49.906;10.908;2022-10-31T03:45:47;13.20;99.90
1994;DHT22;998;49.906;10.908;2022-10-31T03:48:17;13.10;99.90
1994;DHT22;998;49.906;10.908;2022-10-31T03:50:52;13.00;99.90
1994;DHT22;998;49.906;10.908;2022-10-31T03:53:24;12.90;99.90
1994;DHT22;998;49.906;10.908;2022-10-31T03:55:55;12.90;99.90
1994;DHT22;998;49.906;10.908;2022-10-31T03:58:28;12.90;99.90
1994;DHT22;998;49.906;10.908;2022-10-31T04:00:57;12.90;99.90
1994;DHT22;998;49.906;10.908;2022-10-31T04:03:30;12.90;99.90
1994;DHT22;998;49.906;10.908;2022-10-31T04:06:03;12.90;99.90
1994;DHT22;998;49.906;10.908;2022-10-31T04:08:33;12.90;99.90
1994;DHT22;998;49.906;10.908;2022-10-31T04:11:04;12.90;99.90
1994;DHT22;998;49.906;10.908;2022-10-31T04:13:34;12.90;99.90
1994;DHT22;998;49.906;10.908;2022-10-31T04:16:02;12.90;99.90
1994;DHT22;998;49.906;10.908;2022-10-31T04:18:31;12.80;99.90
1994;DHT22;998;49.906;10.908;2022-10-31T04:21:03;12.80;99.90
1994;DHT22;998;49.906;10.908;2022-10-31T04:23:32;12.80;99.90
1994;DHT22;998;49.906;10.908;2022-10-31T04:26:00;12.80;99.90
1994;DHT22;998;49.906;10.908;2022-10-31T04:28:27;12.80;99.90
1994;DHT22;998;49.906;10.908;2022-10-31T04:30:55;12.90;99.90
1994;DHT22;998;49.906;10.908;2022-10-31T04:33:22;12.80;99.90
1994;DHT22;998;49.906;10.908;2022-10-31T04:35:51;12.80;99.90
1994;DHT22;998;49.906;10.908;2022-10-31T04:38:18;12.80;99.90
1994;DHT22;998;49.906;10.908;2022-10-31T04:40:46;12.70;99.90
1994;DHT22;998;49.906;10.908;2022-10-31T04:43:13;12.40;99.90
1994;DHT22;998;49.906;10.908;2022-10-31T04:45:40;12.50;99.90
1994;DHT22;998;49.906;10.908;2022-10-31T04:48:08;12.60;99.90
1994;DHT22;998;49.906;10.908;2022-10-31T04:50:35;12.60;99.90
1994;DHT22;998;49.906;10.908;2022-10-31T04:53:04;12.40;99.90
1994;DHT22;998;49.906;10.908;2022-10-31T04:55:32;12.30;99.90
1994;DHT22;998;49.906;10.908;2022-10-31T04:57:59;12.40;99.90
1994;DHT22;998;49.906;10.908;2022-10-31T05:00:26;12.40;99.90
1994;DHT22;998;49.906;10.908;2022-10-31T05:02:55;12.10;99.90
1994;DHT22;998;49.906;10.908;2022-10-31T05:05:24;12.10;99.90
1994;DHT22;998;49.906;10.908;2022-10-31T05:07:53;12.20;99.90
1994;DHT22;998;49.906;10.908;2022-10-31T05:10:23;12.20;99.90
1994;DHT22;998;49.906;10.908;2022-10-31T05:12:52;12.30;99.90
1994;DHT22;998;49.906;10.908;2022-10-31T05:15:22;12.30;99.90
1994;DHT22;998;49.906;10.908;2022-10-31T05:17:50;12.30;99.90
1994;DHT22;998;49.906;10.908;2022-10-31T05:20:19;12.20;99.90
1994;DHT22;998;49.906;10.908;2022-10-31T05:22:48;12.00;99.90
1994;DHT22;998;49.906;10.908;2022-10-31T05:25:17;12.10;99.90
1994;DHT22;998;49.906;10.908;2022-10-31T05:27:47;11.90;99.90
1994;DHT22;998;49.906;10.908;2022-10-31T05:30:17;12.10;99.90
1994;DHT22;998;49.906;10.908;2022-10-31T05:32:47;12.20;99.90
1994;DHT22;998;49.906;10.908;2022-10-31T05:35:16;12.20;99.90
1994;DHT22;998;49.906;10.908;2022-10-31T05:37:44;12.10;99.90
1994;DHT22;998;49.906;10.908;2022-10-31T05:40:12;12.10;99.90
1994;DHT22;998;49.906;10.908;2022-10-31T05:42:41;12.20;99.90
1994;DHT22;998;49.906;10.908;2022-10-31T05:45:11;12.20;99.90
1994;DHT22;998;49.906;10.908;2022-10-31T05:47:38;12.00;99.90
1994;DHT22;998;49.906;10.908;2022-10-31T05:50:07;12.20;99.90
1994;DHT22;998;49.906;10.908;2022-10-31T05:52:34;12.20;99.90
1994;DHT22;998;49.906;10.908;2022-10-31T05:55:02;12.30;99.90
1994;DHT22;998;49.906;10.908;2022-10-31T05:57:32;12.40;99.90
1994;DHT22;998;49.906;10.908;2022-10-31T06:00:00;12.30;99.90
1994;DHT22;998;49.906;10.908;2022-10-31T06:02:29;12.30;99.90
1994;DHT22;998;49.906;10.908;2022-10-31T06:05:00;12.30;99.90
1994;DHT22;998;49.906;10.908;2022-10-31T06:07:32;12.30;99.90
1994;DHT22;998;49.906;10.908;2022-10-31T06:09:59;12.40;99.90
1994;DHT22;998;49.906;10.908;2022-10-31T06:12:27;12.40;99.90
1994;DHT22;998;49.906;10.908;2022-10-31T06:14:54;12.40;99.90
1994;DHT22;998;49.906;10.908;2022-10-31T06:17:22;12.40;99.90
1994;DHT22;998;49.906;10.908;2022-10-31T06:19:50;12.40;99.90
1994;DHT22;998;49.906;10.908;2022-10-31T06:22:18;12.50;99.90
1994;DHT22;998;49.906;10.908;2022-10-31T06:24:45;12.50;99.90
1994;DHT22;998;49.906;10.908;2022-10-31T06:27:12;12.50;99.90
1994;DHT22;998;49.906;10.908;2022-10-31T06:29:40;12.60;99.90
1994;DHT22;998;49.906;10.908;2022-10-31T06:32:10;12.60;99.90
1994;DHT22;998;49.906;10.908;2022-10-31T06:34:37;12.60;99.90
1994;DHT22;998;49.906;10.908;2022-10-31T06:37:07;12.60;99.90
1994;DHT22;998;49.906;10.908;2022-10-31T06:39:34;12.60;99.90
1994;DHT22;998;49.906;10.908;2022-10-31T06:42:02;12.60;99.90
1994;DHT22;998;49.906;10.908;2022-10-31T06:44:30;12.60;99.90
1994;DHT22;998;49.906;10.908;2022-10-31T06:46:57;12.60;99.90
1994;DHT22;998;49.906;10.908;2022-10-31T06:49:25;12.60;99.90
1994;DHT22;998;49.906;10.908;2022-10-31T06:51:52;12.60;99.90
1994;DHT22;998;49.906;10.908;2022-10-31T06:54:21;12.40;99.90
1994;DHT22;998;49.906;10.908;2022-10-31T06:56:48;12.30;99.90
1994;DHT22;998;49.906;10.908;2022-10-31T06:59:16;12.30;99.90
1994;DHT22;998;49.906;10.908;2022-10-31T07:01:43;12.30;99.90
1994;DHT22;998;49.906;10.908;2022-10-31T07:04:11;12.40;99.90
1994;DHT22;998;49.906;10.908;2022-10-31T07:06:39;12.50;99.90
1994;DHT22;998;49.906;10.908;2022-10-31T07:09:06;12.40;99.90
1994;DHT22;998;49.906;10.908;2022-10-31T07:11:35;12.40;99.90
1994;DHT22;998;49.906;10.908;2022-10-31T07:14:02;12.50;99.90
1994;DHT22;998;49.906;10.908;2022-10-31T07:16:30;12.50;99.90
1994;DHT22;998;49.906;10.908;2022-10-31T07:18:57;12.50;99.90
1994;DHT22;998;49.906;10.908;2022-10-31T07:21:24;12.50;99.90
1994;DHT22;998;49.906;10.908;2022-10-31T07:23:52;12.50;99.90
1994;DHT22;998;49.906;10.908;2022-10-31T07:26:19;12.60;99.90
1994;DHT22;998;49.906;10.908;2022-10-31T07:28:48;12.60;99.90
1994;DHT22;998;49.906;10.908;2022-10-31T07:31:15;12.70;99.90
1994;DHT22;998;49.906;10.908;2022-10-31T07:33:43;12.70;99.90
1994;DHT22;998;49.906;10.908;2022-10-31T07:36:10;12.70;99.90
1994;DHT22;998;49.906;10.908;2022-10-31T07:38:37;12.80;99.90
1994;DHT22;998;49.906;10.908;2022-10-31T07:41:05;12.80;99.90
1994;DHT22;998;49.906;10.908;2022-10-31T07:43:32;12.80;99.90
1994;DHT22;998;49.906;10.908;2022-10-31T07:46:01;12.70;99.90
1994;DHT22;998;49.906;10.908;2022-10-31T07:48:28;12.70;99.90
1994;DHT22;998;49.906;10.908;2022-10-31T07:50:56;12.80;99.90
1994;DHT22;998;49.906;10.908;2022-10-31T07:53:23;12.80;99.90
1994;DHT22;998;49.906;10.908;2022-10-31T07:55:51;12.70;99.90
1994;DHT22;998;49.906;10.908;2022-10-31T07:58:18;12.50;99.90
1994;DHT22;998;49.906;10.908;2022-10-31T08:00:47;12.50;99.90
1994;DHT22;998;49.906;10.908;2022-10-31T08:03:17;12.60;99.90
1994;DHT22;998;49.906;10.908;2022-10-31T08:05:45;12.60;99.90
1994;DHT22;998;49.906;10.908;2022-10-31T08:08:13;12.70;99.90
1994;DHT22;998;49.906;10.908;2022-10-31T08:10:41;12.70;99.90
1994;DHT22;998;49.906;10.908;2022-10-31T08:13:10;12.50;99.90
1994;DHT22;998;49.906;10.908;2022-10-31T08:15:37;12.60;99.90
1994;DHT22;998;49.906;10.908;2022-10-31T08:18:11;12.70;99.90
1994;DHT22;998;49.906;10.908;2022-10-31T08:20:40;12.80;99.90
1994;DHT22;998;49.906;10.908;2022-10-31T08:23:10;12.90;99.90
1994;DHT22;998;49.906;10.908;2022-10-31T08:25:37;12.80;99.90
1994;DHT22;998;49.906;10.908;2022-10-31T08:28:05;12.70;99.90
1994;DHT22;998;49.906;10.908;2022-10-31T08:30:35;12.80;99.90
1994;DHT22;998;49.906;10.908;2022-10-31T08:33:03;12.90;99.90
1994;DHT22;998;49.906;10.908;2022-10-31T08:35:31;12.90;99.90
1994;DHT22;998;49.906;10.908;2022-10-31T08:38:01;13.00;99.90
1994;DHT22;998;49.906;10.908;2022-10-31T08:40:31;13.00;99.90
1994;DHT22;998;49.906;10.908;2022-10-31T08:43:00;13.00;99.90
1994;DHT22;998;49.906;10.908;2022-10-31T08:45:28;12.70;99.90
1994;DHT22;998;49.906;10.908;2022-10-31T08:47:59;12.70;99.90
1994;DHT22;998;49.906;10.908;2022-10-31T08:50:27;12.70;99.90
1994;DHT22;998;49.906;10.908;2022-10-31T08:53:01;12.80;99.90
1994;DHT22;998;49.906;10.908;2022-10-31T08:55:29;12.70;99.90
1994;DHT22;998;49.906;10.908;2022-10-31T08:57:56;12.70;99.90
1994;DHT22;998;49.906;10.908;2022-10-31T09:00:24;12.70;99.90
1994;DHT22;998;49.906;10.908;2022-10-31T09:02:56;12.80;99.90
1994;DHT22;998;49.906;10.908;2022-10-31T09:05:24;12.90;99.90
1994;DHT22;998;49.906;10.908;2022-10-31T09:07:55;13.00;99.90
1994;DHT22;998;49.906;10.908;2022-10-31T09:10:25;13.10;99.90
1994;DHT22;998;49.906;10.908;2022-10-31T09:12:56;13.10;99.90
1994;DHT22;998;49.906;10.908;2022-10-31T09:15:23;13.10;99.90
1994;DHT22;998;49.906;10.908;2022-10-31T09:17:51;13.20;99.90
1994;DHT22;998;49.906;10.908;2022-10-31T09:20:19;13.20;99.90
1994;DHT22;998;49.906;10.908;2022-10-31T09:22:46;13.20;99.90
1994;DHT22;998;49.906;10.908;2022-10-31T09:25:14;13.30;99.90
1994;DHT22;998;49.906;10.908;2022-10-31T09:27:43;13.30;99.90
1994;DHT22;998;49.906;10.908;2022-10-31T09:30:11;13.20;99.90
1994;DHT22;998;49.906;10.908;2022-10-31T09:32:38;13.20;99.90
1994;DHT22;998;49.906;10.908;2022-10-31T09:35:07;13.30;99.90
1994;DHT22;998;49.906;10.908;2022-10-31T09:37:34;13.30;99.90
1994;DHT22;998;49.906;10.908;2022-10-31T09:40:02;13.10;99.90
1994;DHT22;998;49.906;10.908;2022-10-31T09:42:50;13.10;99.90
1994;DHT22;998;49.906;10.908;2022-10-31T09:45:23;13.20;99.90
1994;DHT22;998;49.906;10.908;2022-10-31T09:48:14;13.20;99.90
1994;DHT22;998;49.906;10.908;2022-10-31T09:50:47;13.30;99.90
1994;DHT22;998;49.906;10.908;2022-10-31T09:53:22;13.20;99.90
1994;DHT22;998;49.906;10.908;2022-10-31T09:55:51;13.20;99.90
1994;DHT22;998;49.906;10.908;2022-10-31T09:58:25;13.20;99.90
1994;DHT22;998;49.906;10.908;2022-10-31T10:00:55;13.30;99.90
1994;DHT22;998;49.906;10.908;2022-10-31T10:03:30;13.40;99.90
1994;DHT22;998;49.906;10.908;2022-10-31T10:06:04;13.40;99.90
1994;DHT22;998;49.906;10.908;2022-10-31T10:08:34;13.40;99.90
1994;DHT22;998;49.906;10.908;2022-10-31T10:11:14;13.40;99.90
1994;DHT22;998;49.906;10.908;2022-10-31T10:13:57;13.40;99.90
1994;DHT22;998;49.906;10.908;2022-10-31T10:16:41;13.40;99.90
1994;DHT22;998;49.906;10.908;2022-10-31T10:19:27;13.40;99.90
1994;DHT22;998;49.906;10.908;2022-10-31T10:22:02;13.40;99.90
1994;DHT22;998;49.906;10.908;2022-10-31T10:24:43;13.50;99.90
1994;DHT22;998;49.906;10.908;2022-10-31T10:27:21;13.50;99.90
1994;DHT22;998;49.906;10.908;2022-10-31T10:29:57;13.50;99.90
1994;DHT22;998;49.906;10.908;2022-10-31T10:32:28;13.50;99.90
1994;DHT22;998;49.906;10.908;2022-10-31T10:35:02;13.50;99.90
1994;DHT22;998;49.906;10.908;2022-10-31T10:37:37;13.50;99.90
1994;DHT22;998;49.906;10.908;2022-10-31T10:40:11;13.60;99.90
1994;DHT22;998;49.906;10.908;2022-10-31T10:42:42;13.60;99.90
1994;DHT22;998;49.906;10.908;2022-10-31T10:45:30;13.50;99.90
1994;DHT22;998;49.906;10.908;2022-10-31T10:48:19;13.60;99.90
1994;DHT22;998;49.906;10.908;2022-10-31T10:50:51;13.70;99.90
1994;DHT22;998;49.906;10.908;2022-10-31T10:53:29;13.60;99.90
1994;DHT22;998;49.906;10.908;2022-10-31T10:56:11;13.70;99.90
1994;DHT22;998;49.906;10.908;2022-10-31T10:58:39;13.70;99.90
1994;DHT22;998;49.906;10.908;2022-10-31T11:01:12;13.80;99.90
1994;DHT22;998;49.906;10.908;2022-10-31T11:03:40;14.00;99.90
1994;DHT22;998;49.906;10.908;2022-10-31T11:06:18;14.10;99.90
1994;DHT22;998;49.906;10.908;2022-10-31T11:08:52;14.30;99.90
1994;DHT22;998;49.906;10.908;2022-10-31T11:11:26;14.40;99.90
1994;DHT22;998;49.906;10.908;2022-10-31T11:14:00;14.60;99.90
1994;DHT22;998;49.906;10.908;2022-10-31T11:16:33;14.70;99.90
1994;DHT22;998;49.906;10.908;2022-10-31T11:19:08;14.80;99.90
1994;DHT22;998;49.906;10.908;2022-10-31T11:21:40;14.90;99.90
1994;DHT22;998;49.906;10.908;2022-10-31T11:24:15;15.10;99.90
1994;DHT22;998;49.906;10.908;2022-10-31T11:26:44;15.10;99.90
1994;DHT22;998;49.906;10.908;2022-10-31T11:29:17;15.10;99.90
1994;DHT22;998;49.906;10.908;2022-10-31T11:31:51;15.20;99.90
1994;DHT22;998;49.906;10.908;2022-10-31T11:34:27;15.30;99.90
1994;DHT22;998;49.906;10.908;2022-10-31T11:37:01;15.30;99.90
1994;DHT22;998;49.906;10.908;2022-10-31T11:39:30;15.30;99.90
1994;DHT22;998;49.906;10.908;2022-10-31T11:42:01;15.30;99.90
1994;DHT22;998;49.906;10.908;2022-10-31T11:44:30;15.40;99.90
1994;DHT22;998;49.906;10.908;2022-10-31T11:47:02;15.40;99.90
1994;DHT22;998;49.906;10.908;2022-10-31T11:49:34;15.40;99.90
1994;DHT22;998;49.906;10.908;2022-10-31T11:52:05;15.50;99.90
1994;DHT22;998;49.906;10.908;2022-10-31T11:54:42;15.50;99.90
1994;DHT22;998;49.906;10.908;2022-10-31T11:57:23;15.50;99.90
1994;DHT22;998;49.906;10.908;2022-10-31T11:59:52;15.50;99.90
1994;DHT22;998;49.906;10.908;2022-10-31T12:02:22;15.50;99.90
1994;DHT22;998;49.906;10.908;2022-10-31T12:04:55;15.60;99.90
1994;DHT22;998;49.906;10.908;2022-10-31T12:07:24;15.60;99.90
1994;DHT22;998;49.906;10.908;2022-10-31T12:09:52;15.60;99.90
1994;DHT22;998;49.906;10.908;2022-10-31T12:15:30;15.60;99.90
1994;DHT22;998;49.906;10.908;2022-10-31T12:18:12;15.60;99.90
1994;DHT22;998;49.906;10.908;2022-10-31T12:20:53;15.70;99.90
1994;DHT22;998;49.906;10.908;2022-10-31T12:23:41;15.70;99.90
1994;DHT22;998;49.906;10.908;2022-10-31T12:26:16;15.70;99.90
1994;DHT22;998;49.906;10.908;2022-10-31T12:31:51;15.80;99.90
1994;DHT22;998;49.906;10.908;2022-10-31T12:34:41;15.90;99.90
1994;DHT22;998;49.906;10.908;2022-10-31T12:37:17;15.90;99.90
1994;DHT22;998;49.906;10.908;2022-10-31T12:39:55;16.00;99.90
1994;DHT22;998;49.906;10.908;2022-10-31T12:42:33;16.10;99.90
1994;DHT22;998;49.906;10.908;2022-10-31T12:48:12;16.20;99.90
1994;DHT22;998;49.906;10.908;2022-10-31T12:50:55;16.30;99.90
1994;DHT22;998;49.906;10.908;2022-10-31T12:53:37;16.30;99.90
1994;DHT22;998;49.906;10.908;2022-10-31T12:56:19;16.20;99.90
1994;DHT22;998;49.906;10.908;2022-10-31T12:58:55;16.30;99.90
1994;DHT22;998;49.906;10.908;2022-10-31T13:01:29;16.40;99.90
1994;DHT22;998;49.906;10.908;2022-10-31T13:04:01;16.50;99.90
1994;DHT22;998;49.906;10.908;2022-10-31T13:06:35;16.40;99.90
1994;DHT22;998;49.906;10.908;2022-10-31T13:09:08;16.40;99.90
1994;DHT22;998;49.906;10.908;2022-10-31T13:11:40;16.50;99.90
1994;DHT22;998;49.906;10.908;2022-10-31T13:14:13;16.50;99.90
1994;DHT22;998;49.906;10.908;2022-10-31T13:16:46;16.50;99.90
1994;DHT22;998;49.906;10.908;2022-10-31T13:19:17;16.50;99.90
1994;DHT22;998;49.906;10.908;2022-10-31T13:21:53;16.50;99.90
1994;DHT22;998;49.906;10.908;2022-10-31T13:24:28;16.50;99.90
1994;DHT22;998;49.906;10.908;2022-10-31T13:26:58;16.50;99.90
1994;DHT22;998;49.906;10.908;2022-10-31T13:29:32;16.50;99.90
1994;DHT22;998;49.906;10.908;2022-10-31T13:32:03;16.50;99.90
1994;DHT22;998;49.906;10.908;2022-10-31T13:34:34;16.50;99.90
1994;DHT22;998;49.906;10.908;2022-10-31T13:37:15;16.40;99.90
1994;DHT22;998;49.906;10.908;2022-10-31T13:40:00;16.40;99.90
1994;DHT22;998;49.906;10.908;2022-10-31T13:42:44;16.50;99.90
1994;DHT22;998;49.906;10.908;2022-10-31T13:45:18;16.40;99.90
1994;DHT22;998;49.906;10.908;2022-10-31T13:47:56;16.40;99.90
1994;DHT22;998;49.906;10.908;2022-10-31T13:50:25;16.40;99.90
1994;DHT22;998;49.906;10.908;2022-10-31T13:53:09;16.40;99.90
1994;DHT22;998;49.906;10.908;2022-10-31T13:55:40;16.40;99.90
1994;DHT22;998;49.906;10.908;2022-10-31T13:58:22;16.30;99.90
1994;DHT22;998;49.906;10.908;2022-10-31T14:01:10;16.40;99.90
1994;DHT22;998;49.906;10.908;2022-10-31T14:03:41;16.30;99.90
1994;DHT22;998;49.906;10.908;2022-10-31T14:06:10;16.30;99.90
1994;DHT22;998;49.906;10.908;2022-10-31T14:08:43;16.30;99.90
1994;DHT22;998;49.906;10.908;2022-10-31T14:11:20;16.30;99.90
1994;DHT22;998;49.906;10.908;2022-10-31T14:13:49;16.30;99.90
1994;DHT22;998;49.906;10.908;2022-10-31T14:16:20;16.30;99.90
1994;DHT22;998;49.906;10.908;2022-10-31T14:18:50;16.30;99.90
1994;DHT22;998;49.906;10.908;2022-10-31T14:21:28;16.40;99.90
1994;DHT22;998;49.906;10.908;2022-10-31T14:23:57;16.40;99.90
1994;DHT22;998;49.906;10.908;2022-10-31T14:26:34;16.40;99.90
1994;DHT22;998;49.906;10.908;2022-10-31T14:29:22;16.40;99.90
1994;DHT22;998;49.906;10.908;2022-10-31T14:31:55;16.40;99.90
1994;DHT22;998;49.906;10.908;2022-10-31T14:34:26;16.40;99.90
1994;DHT22;998;49.906;10.908;2022-10-31T14:39:57;16.40;99.90
1994;DHT22;998;49.906;10.908;2022-10-31T14:42:40;16.40;99.90
1994;DHT22;998;49.906;10.908;2022-10-31T14:45:24;16.30;99.90
1994;DHT22;998;49.906;10.908;2022-10-31T14:48:03;16.30;99.90
1994;DHT22;998;49.906;10.908;2022-10-31T14:50:43;16.30;99.90
1994;DHT22;998;49.906;10.908;2022-10-31T14:53:18;16.30;99.90
1994;DHT22;998;49.906;10.908;2022-10-31T14:55:54;16.30;99.90
1994;DHT22;998;49.906;10.908;2022-10-31T14:58:24;16.30;99.90
1994;DHT22;998;49.906;10.908;2022-10-31T15:00:55;16.20;99.90
1994;DHT22;998;49.906;10.908;2022-10-31T15:03:28;16.30;99.90
1994;DHT22;998;49.906;10.908;2022-10-31T15:05:59;16.20;99.90
1994;DHT22;998;49.906;10.908;2022-10-31T15:08:31;16.20;99.90
1994;DHT22;998;49.906;10.908;2022-10-31T15:11:03;16.20;99.90
1994;DHT22;998;49.906;10.908;2022-10-31T15:13:42;16.20;99.90
1994;DHT22;998;49.906;10.908;2022-10-31T15:16:11;16.10;99.90
1994;DHT22;998;49.906;10.908;2022-10-31T15:18:47;16.10;99.90
1994;DHT22;998;49.906;10.908;2022-10-31T15:21:16;16.10;99.90
1994;DHT22;998;49.906;10.908;2022-10-31T15:23:44;16.10;99.90
1994;DHT22;998;49.906;10.908;2022-10-31T15:26:17;16.10;99.90
1994;DHT22;998;49.906;10.908;2022-10-31T15:28:45;16.10;99.90
1994;DHT22;998;49.906;10.908;2022-10-31T15:31:14;16.10;99.90
1994;DHT22;998;49.906;10.908;2022-10-31T15:33:44;16.10;99.90
1994;DHT22;998;49.906;10.908;2022-10-31T15:36:19;16.10;99.90
1994;DHT22;998;49.906;10.908;2022-10-31T15:38:47;16.10;99.90
1994;DHT22;998;49.906;10.908;2022-10-31T15:41:24;16.10;99.90
1994;DHT22;998;49.906;10.908;2022-10-31T15:43:54;16.00;99.90
1994;DHT22;998;49.906;10.908;2022-10-31T15:46:22;16.00;99.90
1994;DHT22;998;49.906;10.908;2022-10-31T15:48:49;16.00;99.90
1994;DHT22;998;49.906;10.908;2022-10-31T15:51:17;16.00;99.90
1994;DHT22;998;49.906;10.908;2022-10-31T15:53:52;16.00;99.90
1994;DHT22;998;49.906;10.908;2022-10-31T15:56:25;16.00;99.90
1994;DHT22;998;49.906;10.908;2022-10-31T15:58:54;16.00;99.90
1994;DHT22;998;49.906;10.908;2022-10-31T16:01:24;15.90;99.90
1994;DHT22;998;49.906;10.908;2022-10-31T16:04:02;16.00;99.90
1994;DHT22;998;49.906;10.908;2022-10-31T16:06:31;15.90;99.90
1994;DHT22;998;49.906;10.908;2022-10-31T16:08:59;15.90;99.90
1994;DHT22;998;49.906;10.908;2022-10-31T16:11:33;15.90;99.90
1994;DHT22;998;49.906;10.908;2022-10-31T16:14:04;15.90;99.90
1994;DHT22;998;49.906;10.908;2022-10-31T16:16:34;15.90;99.90
1994;DHT22;998;49.906;10.908;2022-10-31T16:19:03;15.90;99.90
1994;DHT22;998;49.906;10.908;2022-10-31T16:21:33;15.90;99.90
1994;DHT22;998;49.906;10.908;2022-10-31T16:24:04;15.80;99.90
1994;DHT22;998;49.906;10.908;2022-10-31T16:26:34;15.80;99.90
1994;DHT22;998;49.906;10.908;2022-10-31T16:29:01;15.80;99.90
1994;DHT22;998;49.906;10.908;2022-10-31T16:31:36;15.80;99.90
1994;DHT22;998;49.906;10.908;2022-10-31T16:34:14;15.70;99.90
1994;DHT22;998;49.906;10.908;2022-10-31T16:36:42;15.70;99.90
1994;DHT22;998;49.906;10.908;2022-10-31T16:39:09;15.70;99.90
1994;DHT22;998;49.906;10.908;2022-10-31T16:41:41;15.70;99.90
1994;DHT22;998;49.906;10.908;2022-10-31T16:44:17;15.70;99.90
1994;DHT22;998;49.906;10.908;2022-10-31T16:46:44;15.70;99.90